createdAt,value
2018-09-11T00:00:16.161Z,23.3
2018-09-11T00:01:21.849Z,23.3
2018-09-11T00:02:26.482Z,23.3
2018-09-11T00:03:32.391Z,23.3
2018-09-11T00:04:37.268Z,23.3
2018-09-11T00:05:41.895Z,23.3
2018-09-11T00:06:47.331Z,23.3
2018-09-11T00:07:52.540Z,23.3
2018-09-11T00:08:57.477Z,23.3
2018-09-11T00:10:02.707Z,23.3
2018-09-11T00:11:07.424Z,23.3
2018-09-11T00:12:12.286Z,23.3
2018-09-11T00:13:17.513Z,23.3
2018-09-11T00:14:22.090Z,23.3
2018-09-11T00:15:27.394Z,23.3
2018-09-11T00:16:32.346Z,23.3
2018-09-11T00:17:37.798Z,23.3
2018-09-11T00:18:43.773Z,23.3
2018-09-11T00:19:48.702Z,23.3
2018-09-11T00:20:53.577Z,23.3
2018-09-11T00:21:59.067Z,23.3
2018-09-11T00:23:03.708Z,23.3
2018-09-11T00:24:09.150Z,23.3
2018-09-11T00:25:14.850Z,23.3
2018-09-11T00:26:20.031Z,23.3
2018-09-11T00:27:24.927Z,23.3
2018-09-11T00:28:30.868Z,23.3
2018-09-11T00:29:36.024Z,23.3
2018-09-11T00:30:41.163Z,23.3
2018-09-11T00:31:46.593Z,23.3
2018-09-11T00:32:51.457Z,23.3
2018-09-11T00:33:57.057Z,23.3
2018-09-11T00:35:01.650Z,23.3
2018-09-11T00:36:06.251Z,23.3
2018-09-11T00:37:12.244Z,23.3
2018-09-11T00:38:17.119Z,23.3
2018-09-11T00:39:22.278Z,23.3
2018-09-11T00:40:43.024Z,23.3
2018-09-11T00:41:48.276Z,23.3
2018-09-11T00:42:53.897Z,23.3
2018-09-11T00:43:58.800Z,23.3
2018-09-11T00:45:04.234Z,23.3
2018-09-11T00:46:09.965Z,23.3
2018-09-11T00:47:15.471Z,23.3
2018-09-11T00:48:20.671Z,23.3
2018-09-11T00:49:26.064Z,23.3
2018-09-11T00:50:30.944Z,23.3
2018-09-11T00:51:36.386Z,23.3
2018-09-11T00:52:41.909Z,23.3
2018-09-11T00:53:47.397Z,23.3
2018-09-11T00:54:53.221Z,23.3
2018-09-11T00:55:58.646Z,23.3
2018-09-11T01:02:00.926Z,23.3
2018-09-11T01:03:05.257Z,23.3
2018-09-11T01:04:11.060Z,23.3
2018-09-11T01:05:16.531Z,23.3
2018-09-11T01:06:21.966Z,23.3
2018-09-11T01:07:27.287Z,23.3
2018-09-11T01:08:32.766Z,23.3
2018-09-11T01:09:38.076Z,23.3
2018-09-11T01:10:43.618Z,23.3
2018-09-11T01:11:48.764Z,23.3
2018-09-11T01:12:54.164Z,23.3
2018-09-11T01:13:59.594Z,23.3
2018-09-11T01:15:04.572Z,23.3
2018-09-11T01:16:10.458Z,23.3
2018-09-11T01:17:15.937Z,23.3
2018-09-11T01:18:21.091Z,23.3
2018-09-11T01:19:26.998Z,23.3
2018-09-11T01:20:32.152Z,23.3
2018-09-11T01:21:37.673Z,23.3
2018-09-11T01:22:43.176Z,23.3
2018-09-11T01:23:48.320Z,23.3
2018-09-11T01:24:53.839Z,23.3
2018-09-11T01:25:59.259Z,23.3
2018-09-11T01:27:04.130Z,23.3
2018-09-11T01:28:10.068Z,23.3
2018-09-11T01:29:15.240Z,23.3
2018-09-11T01:30:19.831Z,23.3
2018-09-11T01:31:25.286Z,23.3
2018-09-11T01:32:30.727Z,23.3
2018-09-11T01:33:36.451Z,23.3
2018-09-11T01:34:41.921Z,23.3
2018-09-11T01:35:47.357Z,23.3
2018-09-11T01:36:52.905Z,23.3
2018-09-11T01:37:58.422Z,23.3
2018-09-11T01:39:03.914Z,23.3
2018-09-11T01:40:09.310Z,23.3
2018-09-11T01:41:14.548Z,23.3
2018-09-11T01:42:19.785Z,23.3
2018-09-11T01:43:25.470Z,23.3
2018-09-11T01:44:30.973Z,23.3
2018-09-11T01:45:36.613Z,23.3
2018-09-11T01:46:42.044Z,23.3
2018-09-11T01:47:47.199Z,23.3
2018-09-11T01:48:52.462Z,23.3
2018-09-11T01:49:57.354Z,23.3
2018-09-11T01:51:02.782Z,23.3
2018-09-11T01:52:08.503Z,23.3
2018-09-11T01:53:13.650Z,23.3
2018-09-11T01:54:19.107Z,23.3
2018-09-11T01:55:24.607Z,23.3
2018-09-11T01:56:30.122Z,23.3
2018-09-11T01:57:36.187Z,23.3
2018-09-11T01:58:41.065Z,23.3
2018-09-11T01:59:45.991Z,23.3
2018-09-11T02:00:51.839Z,23.3
2018-09-11T02:01:57.186Z,23.3
2018-09-11T02:03:02.414Z,23.3
2018-09-11T02:04:07.940Z,23.3
2018-09-11T02:05:12.936Z,23.3
2018-09-11T02:06:18.165Z,23.3
2018-09-11T02:07:23.574Z,23.3
2018-09-11T02:08:29.062Z,23.3
2018-09-11T02:09:34.635Z,23.3
2018-09-11T02:10:40.161Z,23.3
2018-09-11T02:11:45.321Z,23.3
2018-09-11T02:12:50.867Z,23.3
2018-09-11T02:13:56.341Z,23.3
2018-09-11T02:15:01.592Z,23.3
2018-09-11T02:16:06.460Z,23.3
2018-09-11T02:17:11.979Z,23.3
2018-09-11T02:18:17.564Z,23.3
2018-09-11T02:19:22.429Z,23.3
2018-09-11T02:20:27.094Z,23.3
2018-09-11T02:21:32.595Z,23.3
2018-09-11T02:22:37.472Z,23.3
2018-09-11T02:23:42.648Z,23.3
2018-09-11T02:24:48.148Z,23.3
2018-09-11T02:25:53.585Z,23.3
2018-09-11T02:26:58.742Z,23.3
2018-09-11T02:28:04.583Z,23.3
2018-09-11T02:29:09.741Z,23.3
2018-09-11T02:30:14.637Z,23.3
2018-09-11T02:31:20.315Z,23.3
2018-09-11T02:32:25.464Z,23.3
2018-09-11T02:33:31.189Z,23.3
2018-09-11T02:34:36.723Z,23.3
2018-09-11T02:35:41.673Z,23.3
2018-09-11T02:36:47.843Z,23.3
2018-09-11T02:37:53.289Z,23.3
2018-09-11T02:38:58.770Z,23.3
2018-09-11T02:40:04.381Z,23.3
2018-09-11T02:41:09.364Z,23.3
2018-09-11T02:42:14.227Z,23.3
2018-09-11T02:43:19.755Z,23.3
2018-09-11T02:44:24.329Z,23.3
2018-09-11T02:45:29.867Z,23.3
2018-09-11T02:46:35.076Z,23.3
2018-09-11T02:47:40.507Z,23.3
2018-09-11T02:48:46.060Z,23.3
2018-09-11T02:49:51.252Z,23.3
2018-09-11T02:50:56.174Z,23.3
2018-09-11T02:52:01.739Z,23.3
2018-09-11T02:53:06.329Z,23.3
2018-09-11T02:54:11.472Z,23.3
2018-09-11T02:55:16.949Z,23.3
2018-09-11T02:56:22.376Z,23.3
2018-09-11T02:57:28.053Z,23.3
2018-09-11T02:58:33.528Z,23.3
2018-09-11T02:59:38.718Z,23.3
2018-09-11T03:00:44.557Z,23.3
2018-09-11T03:01:49.432Z,23.3
2018-09-11T03:02:54.629Z,23.3
2018-09-11T03:04:00.189Z,23.3
2018-09-11T03:05:05.103Z,23.3
2018-09-11T03:06:10.259Z,23.3
2018-09-11T03:07:15.759Z,23.3
2018-09-11T03:08:20.925Z,23.3
2018-09-11T03:09:26.516Z,23.3
2018-09-11T03:10:31.702Z,23.3
2018-09-11T03:11:36.923Z,23.3
2018-09-11T03:12:42.424Z,23.3
2018-09-11T03:13:47.946Z,23.3
2018-09-11T03:14:53.382Z,23.3
2018-09-11T03:15:59.184Z,23.3
2018-09-11T03:17:04.432Z,23.3
2018-09-11T03:18:09.598Z,23.3
2018-09-11T03:19:14.746Z,23.3
2018-09-11T03:20:20.013Z,23.3
2018-09-11T03:21:24.893Z,23.3
2018-09-11T03:22:45.071Z,23.3
2018-09-11T03:23:50.516Z,23.3
2018-09-11T03:24:55.806Z,23.3
2018-09-11T03:26:01.311Z,23.3
2018-09-11T03:27:06.469Z,23.3
2018-09-11T03:28:11.978Z,23.3
2018-09-11T03:29:16.926Z,23.3
2018-09-11T03:30:22.131Z,23.3
2018-09-11T03:31:27.602Z,23.3
2018-09-11T03:32:33.088Z,23.3
2018-09-11T03:33:38.491Z,23.3
2018-09-11T03:34:43.818Z,23.3
2018-09-11T03:35:49.271Z,23.3
2018-09-11T03:36:54.385Z,23.3
2018-09-11T03:37:59.977Z,23.3
2018-09-11T03:39:04.890Z,23.3
2018-09-11T03:40:10.564Z,23.3
2018-09-11T03:41:16.042Z,23.2
2018-09-11T03:42:21.243Z,23.3
2018-09-11T03:43:27.056Z,23.3
2018-09-11T03:44:32.007Z,23.3
2018-09-11T03:45:37.304Z,23.2
2018-09-11T03:46:42.734Z,23.2
2018-09-11T03:47:48.033Z,23.2
2018-09-11T03:48:53.915Z,23.2
2018-09-11T03:49:59.067Z,23.2
2018-09-11T03:51:04.230Z,23.2
2018-09-11T03:52:10.007Z,23.2
2018-09-11T03:53:15.459Z,23.2
2018-09-11T03:54:20.902Z,23.2
2018-09-11T03:55:40.672Z,23.2
2018-09-11T03:56:45.550Z,23.2
2018-09-11T03:57:50.982Z,23.2
2018-09-11T03:58:56.503Z,23.2
2018-09-11T04:00:01.385Z,23.2
2018-09-11T04:01:06.533Z,23.2
2018-09-11T04:02:11.686Z,23
2018-09-11T04:03:16.871Z,22.9
2018-09-11T04:04:22.562Z,22.8
2018-09-11T04:05:27.796Z,22.8
2018-09-11T04:06:33.825Z,22.7
2018-09-11T04:07:38.978Z,22.6
2018-09-11T04:08:44.409Z,22.6
2018-09-11T04:09:49.388Z,22.5
2018-09-11T04:10:54.544Z,22.5
2018-09-11T04:11:59.138Z,22.4
2018-09-11T04:13:04.562Z,22.4
2018-09-11T04:14:10.014Z,22.4
2018-09-11T04:15:14.942Z,22.3
2018-09-11T04:16:20.215Z,22.3
2018-09-11T04:17:24.796Z,22.2
2018-09-11T04:18:30.883Z,22.2
2018-09-11T04:19:36.311Z,22.1
2018-09-11T04:20:41.511Z,22.1
2018-09-11T04:21:46.985Z,22.1
2018-09-11T04:22:51.909Z,22
2018-09-11T04:23:57.082Z,22
2018-09-11T04:25:02.599Z,22
2018-09-11T04:26:07.472Z,21.9
2018-09-11T04:27:12.904Z,21.9
2018-09-11T04:28:18.338Z,21.9
2018-09-11T04:29:23.200Z,21.9
2018-09-11T04:30:29.092Z,21.8
2018-09-11T04:31:34.293Z,21.8
2018-09-11T04:32:39.165Z,21.8
2018-09-11T04:33:44.593Z,21.7
2018-09-11T04:34:49.748Z,21.7
2018-09-11T04:35:54.614Z,21.7
2018-09-11T04:36:59.721Z,21.7
2018-09-11T04:38:04.873Z,21.6
2018-09-11T04:39:10.051Z,21.6
2018-09-11T04:40:15.565Z,21.6
2018-09-11T04:41:20.198Z,21.6
2018-09-11T04:42:26.287Z,21.6
2018-09-11T04:43:31.253Z,21.6
2018-09-11T04:44:36.713Z,21.5
2018-09-11T04:45:42.486Z,21.5
2018-09-11T04:46:47.949Z,21.5
2018-09-11T04:47:53.382Z,21.5
2018-09-11T04:48:59.176Z,21.4
2018-09-11T04:50:04.376Z,21.4
2018-09-11T04:51:08.956Z,21.4
2018-09-11T04:52:14.200Z,21.4
2018-09-11T04:53:19.171Z,21.4
2018-09-11T04:54:24.596Z,21.4
2018-09-11T04:55:44.713Z,21.3
2018-09-11T04:56:49.862Z,21.3
2018-09-11T04:57:55.151Z,21.3
2018-09-11T04:59:00.376Z,21.3
2018-09-11T05:00:05.243Z,21.3
2018-09-11T05:01:10.670Z,21.2
2018-09-11T05:02:16.179Z,21.2
2018-09-11T05:03:21.054Z,21.2
2018-09-11T05:04:26.755Z,21.2
2018-09-11T05:05:31.953Z,21.2
2018-09-11T05:06:37.631Z,21.2
2018-09-11T05:07:42.794Z,21.2
2018-09-11T05:08:48.270Z,21.1
2018-09-11T05:09:54.068Z,21.1
2018-09-11T05:10:59.285Z,21.1
2018-09-11T05:12:04.573Z,21.1
2018-09-11T05:13:09.875Z,21.1
2018-09-11T05:14:15.314Z,21.1
2018-09-11T05:15:20.837Z,21.1
2018-09-11T05:16:40.715Z,21.1
2018-09-11T05:17:46.145Z,21
2018-09-11T05:18:51.857Z,21
2018-09-11T05:19:57.286Z,21
2018-09-11T05:21:02.216Z,21
2018-09-11T05:22:07.340Z,21
2018-09-11T05:23:12.986Z,21
2018-09-11T05:24:17.865Z,21
2018-09-11T05:25:23.361Z,21
2018-09-11T05:26:28.299Z,21
2018-09-11T05:27:34.186Z,20.9
2018-09-11T05:28:39.785Z,20.9
2018-09-11T05:29:45.286Z,20.9
2018-09-11T05:30:50.448Z,20.9
2018-09-11T05:31:55.590Z,20.9
2018-09-11T05:33:00.735Z,20.9
2018-09-11T05:34:06.155Z,20.9
2018-09-11T05:35:11.597Z,20.9
2018-09-11T05:36:17.050Z,20.9
2018-09-11T05:37:22.780Z,20.8
2018-09-11T05:38:28.276Z,20.8
2018-09-11T05:39:33.773Z,20.8
2018-09-11T05:40:39.264Z,20.8
2018-09-11T05:41:44.690Z,20.8
2018-09-11T05:42:50.379Z,20.8
2018-09-11T05:43:55.855Z,20.8
2018-09-11T05:45:00.998Z,20.8
2018-09-11T05:46:06.548Z,20.8
2018-09-11T05:47:12.047Z,20.7
2018-09-11T05:48:17.990Z,20.7
2018-09-11T05:49:23.528Z,20.7
2018-09-11T05:50:28.224Z,20.7
2018-09-11T05:51:33.741Z,20.7
2018-09-11T05:52:38.890Z,20.7
2018-09-11T05:53:44.345Z,20.7
2018-09-11T05:54:50.043Z,20.7
2018-09-11T05:55:55.254Z,20.7
2018-09-11T05:57:00.482Z,20.7
2018-09-11T05:58:05.629Z,20.7
2018-09-11T05:59:10.777Z,20.7
2018-09-11T06:00:16.267Z,20.6
2018-09-11T06:01:22.088Z,20.6
2018-09-11T06:02:27.238Z,20.6
2018-09-11T06:03:32.408Z,20.6
2018-09-11T06:04:37.665Z,20.6
2018-09-11T06:05:43.124Z,20.6
2018-09-11T06:06:49.372Z,20.6
2018-09-11T06:07:54.276Z,20.6
2018-09-11T06:08:59.502Z,20.6
2018-09-11T06:10:04.673Z,20.6
2018-09-11T06:11:10.167Z,20.6
2018-09-11T06:12:15.315Z,20.6
2018-09-11T06:13:20.763Z,20.6
2018-09-11T06:14:26.240Z,20.6
2018-09-11T06:15:31.951Z,20.6
2018-09-11T06:16:37.160Z,20.6
2018-09-11T06:17:42.645Z,20.5
2018-09-11T06:18:48.160Z,20.5
2018-09-11T06:19:53.639Z,20.5
2018-09-11T06:20:58.015Z,20.5
2018-09-11T06:22:03.528Z,20.5
2018-09-11T06:23:08.749Z,20.5
2018-09-11T06:24:14.014Z,20.5
2018-09-11T06:25:19.513Z,20.5
2018-09-11T06:26:24.691Z,20.6
2018-09-11T06:27:30.327Z,20.6
2018-09-11T06:28:35.195Z,20.6
2018-09-11T06:29:40.803Z,20.6
2018-09-11T06:30:46.678Z,20.6
2018-09-11T06:31:52.170Z,20.7
2018-09-11T06:32:57.480Z,20.7
2018-09-11T06:34:02.932Z,20.7
2018-09-11T06:35:08.363Z,20.7
2018-09-11T06:36:13.840Z,20.7
2018-09-11T06:37:19.697Z,20.8
2018-09-11T06:38:24.559Z,20.8
2018-09-11T06:39:30.402Z,20.8
2018-09-11T06:40:35.554Z,20.8
2018-09-11T06:41:40.735Z,20.9
2018-09-11T06:42:46.177Z,20.9
2018-09-11T06:43:51.181Z,20.9
2018-09-11T06:44:56.610Z,20.9
2018-09-11T06:46:02.073Z,20.9
2018-09-11T06:47:06.860Z,20.9
2018-09-11T06:48:12.402Z,21
2018-09-11T06:49:17.880Z,21
2018-09-11T06:50:23.437Z,21
2018-09-11T06:51:27.747Z,21
2018-09-11T06:52:33.000Z,21
2018-09-11T06:53:37.913Z,21
2018-09-11T06:54:43.466Z,21
2018-09-11T06:55:48.983Z,21.1
2018-09-11T06:56:54.226Z,21.1
2018-09-11T06:57:59.666Z,21.1
2018-09-11T06:59:04.882Z,21.1
2018-09-11T07:00:10.794Z,21.1
2018-09-11T07:01:16.198Z,21.1
2018-09-11T07:02:21.350Z,21.1
2018-09-11T07:03:26.927Z,21.2
2018-09-11T07:04:32.420Z,21.2
2018-09-11T07:05:37.372Z,21.2
2018-09-11T07:06:43.090Z,21.2
2018-09-11T07:07:48.522Z,21.2
2018-09-11T07:08:53.664Z,21.2
2018-09-11T07:09:59.344Z,21.2
2018-09-11T07:11:04.777Z,21.2
2018-09-11T07:12:10.020Z,21.2
2018-09-11T07:13:16.040Z,21.3
2018-09-11T07:14:21.472Z,21.3
2018-09-11T07:15:27.556Z,21.3
2018-09-11T07:16:32.702Z,21.3
2018-09-11T07:17:37.925Z,21.3
2018-09-11T07:18:44.054Z,21.3
2018-09-11T07:19:49.685Z,21.3
2018-09-11T07:20:56.386Z,21.3
2018-09-11T07:22:04.156Z,21.3
2018-09-11T07:23:09.645Z,21.3
2018-09-11T07:24:14.952Z,21.4
2018-09-11T07:25:20.734Z,21.4
2018-09-11T07:26:25.927Z,21.4
2018-09-11T07:27:31.038Z,21.4
2018-09-11T07:28:35.954Z,21.4
2018-09-11T07:29:41.205Z,21.4
2018-09-11T07:30:46.625Z,21.4
2018-09-11T07:31:51.788Z,21.4
2018-09-11T07:32:56.940Z,21.4
2018-09-11T07:34:01.815Z,21.4
2018-09-11T07:35:06.994Z,21.4
2018-09-11T07:36:12.492Z,21.4
2018-09-11T07:37:18.181Z,21.4
2018-09-11T07:38:22.835Z,21.5
2018-09-11T07:39:28.509Z,21.5
2018-09-11T07:40:33.687Z,21.4
2018-09-11T07:41:39.125Z,21.5
2018-09-11T07:42:44.640Z,21.5
2018-09-11T07:43:49.513Z,21.5
2018-09-11T07:44:54.986Z,21.5
2018-09-11T07:46:00.815Z,21.5
2018-09-11T07:47:05.972Z,21.5
2018-09-11T07:48:11.236Z,21.5
2018-09-11T07:49:17.171Z,21.5
2018-09-11T07:50:22.662Z,21.5
2018-09-11T07:51:28.639Z,21.5
2018-09-11T07:52:33.892Z,21.5
2018-09-11T07:53:39.799Z,21.5
2018-09-11T07:54:45.204Z,21.5
2018-09-11T07:55:50.121Z,21.5
2018-09-11T07:56:55.558Z,21.5
2018-09-11T07:58:00.788Z,21.5
2018-09-11T07:59:06.694Z,21.5
2018-09-11T08:00:11.854Z,21.5
2018-09-11T08:01:17.563Z,21.5
2018-09-11T08:02:22.692Z,21.5
2018-09-11T08:03:28.329Z,21.5
2018-09-11T08:04:33.757Z,21.5
2018-09-11T08:05:38.493Z,21.5
2018-09-11T08:06:44.369Z,21.6
2018-09-11T08:07:49.519Z,21.6
2018-09-11T08:08:54.714Z,21.6
2018-09-11T08:10:00.674Z,21.6
2018-09-11T08:11:05.553Z,21.6
2018-09-11T08:12:11.040Z,21.6
2018-09-11T08:13:17.126Z,21.6
2018-09-11T08:14:22.277Z,21.6
2018-09-11T08:15:27.719Z,21.6
2018-09-11T08:16:33.047Z,21.6
2018-09-11T08:17:38.378Z,21.6
2018-09-11T08:18:43.754Z,21.6
2018-09-11T08:19:49.294Z,21.6
2018-09-11T08:20:54.501Z,21.6
2018-09-11T08:21:59.664Z,21.6
2018-09-11T08:23:04.884Z,21.6
2018-09-11T08:24:10.333Z,21.6
2018-09-11T08:25:15.806Z,21.6
2018-09-11T08:26:20.186Z,21.6
2018-09-11T08:28:46.250Z,21.6
2018-09-11T08:29:51.708Z,21.6
2018-09-11T08:30:56.662Z,21.6
2018-09-11T08:32:01.249Z,21.6
2018-09-11T08:33:06.424Z,21.6
2018-09-11T08:34:11.602Z,21.6
2018-09-11T08:35:16.534Z,21.6
2018-09-11T08:36:21.767Z,21.6
2018-09-11T08:37:27.587Z,21.6
2018-09-11T08:38:31.623Z,21.6
2018-09-11T08:39:37.874Z,21.6
2018-09-11T08:40:43.121Z,21.6
2018-09-11T08:41:48.523Z,21.7
2018-09-11T08:42:53.672Z,21.6
2018-09-11T08:43:59.332Z,21.7
2018-09-11T08:45:04.228Z,21.7
2018-09-11T08:46:09.786Z,21.7
2018-09-11T08:47:15.033Z,21.7
2018-09-11T08:48:19.911Z,21.7
2018-09-11T08:49:25.111Z,21.7
2018-09-11T08:50:30.564Z,21.7
2018-09-11T08:51:35.439Z,21.7
2018-09-11T08:52:40.389Z,21.7
2018-09-11T08:53:45.950Z,21.7
2018-09-11T08:54:51.709Z,21.7
2018-09-11T08:55:56.863Z,21.7
2018-09-11T08:57:02.688Z,21.7
2018-09-11T08:58:07.926Z,21.7
2018-09-11T08:59:12.810Z,21.7
2018-09-11T09:00:17.995Z,21.7
2018-09-11T09:01:23.051Z,21.7
2018-09-11T09:02:27.971Z,21.7
2018-09-11T09:03:33.974Z,21.7
2018-09-11T09:04:38.846Z,21.7
2018-09-11T09:05:43.773Z,21.7
2018-09-11T09:06:50.429Z,21.7
2018-09-11T09:07:55.923Z,21.7
2018-09-11T09:09:00.808Z,21.7
2018-09-11T09:10:06.314Z,21.7
2018-09-11T09:11:11.483Z,21.7
2018-09-11T09:12:16.667Z,21.7
2018-09-11T09:13:21.952Z,21.7
2018-09-11T09:14:26.826Z,21.7
2018-09-11T09:15:32.104Z,21.7
2018-09-11T09:16:37.415Z,21.7
2018-09-11T09:17:42.559Z,21.7
2018-09-11T09:18:48.264Z,21.7
2018-09-11T09:19:53.429Z,21.7
2018-09-11T09:20:58.910Z,21.7
2018-09-11T09:22:03.955Z,21.7
2018-09-11T09:23:09.600Z,21.7
2018-09-11T09:24:14.544Z,21.7
2018-09-11T09:25:20.406Z,21.7
2018-09-11T09:26:25.865Z,21.7
2018-09-11T09:27:31.697Z,21.7
2018-09-11T09:28:37.614Z,21.7
2018-09-11T09:29:42.960Z,21.7
2018-09-11T09:30:48.397Z,21.7
2018-09-11T09:31:53.591Z,21.7
2018-09-11T09:32:58.767Z,21.7
2018-09-11T09:34:04.216Z,21.7
2018-09-11T09:35:09.094Z,21.7
2018-09-11T09:36:14.162Z,21.7
2018-09-11T09:37:19.501Z,21.7
2018-09-11T09:38:24.671Z,21.7
2018-09-11T09:39:30.499Z,21.7
2018-09-11T09:40:35.956Z,21.7
2018-09-11T09:41:41.130Z,21.7
2018-09-11T09:42:46.811Z,21.7
2018-09-11T09:43:52.303Z,21.7
2018-09-11T09:44:57.501Z,21.7
2018-09-11T09:46:03.481Z,21.7
2018-09-11T09:47:08.530Z,21.7
2018-09-11T09:48:13.689Z,21.7
2018-09-11T09:49:19.879Z,21.7
2018-09-11T09:50:25.087Z,21.7
2018-09-11T09:51:31.212Z,21.7
2018-09-11T09:52:36.369Z,21.7
2018-09-11T09:53:41.582Z,21.8
2018-09-11T09:54:47.271Z,21.7
2018-09-11T09:55:53.028Z,21.7
2018-09-11T09:56:58.493Z,21.7
2018-09-11T09:58:04.182Z,21.7
2018-09-11T09:59:09.622Z,21.8
2018-09-11T10:00:14.858Z,21.7
2018-09-11T10:01:20.495Z,21.8
2018-09-11T10:02:25.380Z,21.8
2018-09-11T10:03:30.580Z,21.8
2018-09-11T10:04:35.540Z,21.8
2018-09-11T10:05:40.758Z,21.8
2018-09-11T10:06:46.249Z,21.8
2018-09-11T10:07:51.456Z,21.8
2018-09-11T10:08:56.508Z,21.8
2018-09-11T10:10:01.952Z,21.8
2018-09-11T10:11:06.576Z,21.8
2018-09-11T10:12:11.724Z,21.8
2018-09-11T10:13:17.150Z,21.8
2018-09-11T10:14:22.580Z,21.8
2018-09-11T10:15:27.445Z,21.8
2018-09-11T10:16:32.393Z,21.8
2018-09-11T10:17:37.901Z,21.8
2018-09-11T10:18:44.106Z,21.8
2018-09-11T10:19:49.269Z,21.8
2018-09-11T10:20:54.421Z,21.8
2018-09-11T10:21:59.832Z,21.7
2018-09-11T10:23:05.524Z,21.8
2018-09-11T10:24:10.956Z,21.8
2018-09-11T10:25:16.163Z,21.8
2018-09-11T10:26:21.332Z,21.8
2018-09-11T10:27:26.788Z,21.8
2018-09-11T10:28:32.030Z,21.8
2018-09-11T10:29:37.307Z,21.8
2018-09-11T10:30:43.134Z,21.8
2018-09-11T10:31:48.583Z,21.8
2018-09-11T10:32:54.281Z,21.8
2018-09-11T10:33:59.756Z,21.8
2018-09-11T10:35:04.905Z,21.8
2018-09-11T10:36:09.838Z,21.8
2018-09-11T10:37:14.760Z,21.8
2018-09-11T10:38:19.639Z,21.8
2018-09-11T10:39:25.428Z,21.8
2018-09-11T10:40:31.138Z,21.8
2018-09-11T10:41:36.287Z,21.8
2018-09-11T10:42:42.064Z,21.8
2018-09-11T10:43:46.978Z,21.8
2018-09-11T10:44:52.601Z,21.8
2018-09-11T10:45:58.317Z,21.8
2018-09-11T10:47:03.177Z,21.8
2018-09-11T10:48:08.331Z,21.8
2018-09-11T10:49:13.303Z,21.8
2018-09-11T10:50:18.451Z,21.8
2018-09-11T10:51:23.984Z,21.8
2018-09-11T10:52:28.937Z,21.8
2018-09-11T10:53:33.811Z,21.8
2018-09-11T10:54:39.516Z,21.8
2018-09-11T10:55:44.975Z,21.8
2018-09-11T10:56:49.944Z,21.8
2018-09-11T10:57:55.342Z,21.8
2018-09-11T10:59:00.547Z,21.8
2018-09-11T11:00:05.164Z,21.8
2018-09-11T11:01:10.591Z,21.8
2018-09-11T11:02:15.464Z,21.8
2018-09-11T11:03:20.618Z,21.8
2018-09-11T11:04:26.604Z,21.8
2018-09-11T11:05:32.115Z,21.8
2018-09-11T11:06:37.997Z,21.8
2018-09-11T11:07:43.481Z,21.8
2018-09-11T11:08:48.930Z,21.8
2018-09-11T11:09:54.043Z,21.8
2018-09-11T11:10:58.961Z,21.8
2018-09-11T11:12:04.111Z,21.8
2018-09-11T11:13:09.930Z,21.8
2018-09-11T11:14:14.862Z,21.8
2018-09-11T11:15:20.015Z,21.8
2018-09-11T11:16:25.173Z,21.8
2018-09-11T11:17:30.732Z,21.8
2018-09-11T11:18:36.265Z,21.8
2018-09-11T11:19:41.417Z,21.8
2018-09-11T11:20:46.911Z,21.8
2018-09-11T11:21:52.078Z,21.8
2018-09-11T11:22:56.953Z,21.8
2018-09-11T11:24:02.101Z,21.8
2018-09-11T11:25:07.323Z,21.8
2018-09-11T11:26:11.962Z,21.9
2018-09-11T11:27:17.439Z,21.8
2018-09-11T11:28:22.634Z,21.8
2018-09-11T11:29:28.087Z,21.8
2018-09-11T11:30:33.493Z,21.8
2018-09-11T11:31:38.918Z,21.8
2018-09-11T11:32:43.548Z,21.8
2018-09-11T11:33:49.541Z,21.8
2018-09-11T11:34:54.697Z,21.8
2018-09-11T11:36:00.011Z,21.8
2018-09-11T11:37:06.020Z,21.8
2018-09-11T11:38:12.203Z,21.8
2018-09-11T11:39:17.343Z,21.8
2018-09-11T11:40:22.788Z,21.8
2018-09-11T11:41:28.232Z,21.9
2018-09-11T11:42:32.794Z,21.8
2018-09-11T11:43:38.012Z,21.9
2018-09-11T11:44:43.166Z,21.8
2018-09-11T11:45:48.932Z,21.9
2018-09-11T11:46:53.815Z,21.9
2018-09-11T11:47:58.677Z,21.8
2018-09-11T11:49:03.549Z,21.9
2018-09-11T11:50:08.704Z,21.9
2018-09-11T11:51:13.615Z,21.9
2018-09-11T11:52:19.325Z,21.9
2018-09-11T11:53:24.753Z,21.9
2018-09-11T11:54:30.599Z,21.9
2018-09-11T11:55:35.781Z,21.9
2018-09-11T11:56:40.632Z,21.9
2018-09-11T11:57:45.854Z,21.9
2018-09-11T11:58:51.309Z,21.9
2018-09-11T11:59:56.740Z,21.9
2018-09-11T12:01:02.060Z,21.9
2018-09-11T12:02:07.303Z,21.9
2018-09-11T12:03:12.159Z,21.9
2018-09-11T12:04:17.854Z,21.9
2018-09-11T12:05:23.078Z,21.9
2018-09-11T12:06:29.129Z,21.9
2018-09-11T12:07:34.220Z,21.9
2018-09-11T12:08:39.223Z,21.9
2018-09-11T12:09:44.164Z,21.9
2018-09-11T12:10:49.726Z,21.9
2018-09-11T12:11:55.225Z,21.9
2018-09-11T12:13:00.631Z,21.9
2018-09-11T12:14:05.829Z,21.9
2018-09-11T12:15:11.258Z,21.9
2018-09-11T12:16:16.486Z,21.9
2018-09-11T12:17:21.615Z,21.9
2018-09-11T12:18:27.637Z,21.9
2018-09-11T12:19:33.088Z,21.9
2018-09-11T12:20:38.898Z,21.9
2018-09-11T12:21:44.924Z,21.9
2018-09-11T12:22:50.065Z,21.9
2018-09-11T12:23:54.927Z,21.9
2018-09-11T12:25:00.560Z,21.9
2018-09-11T12:26:05.746Z,21.9
2018-09-11T12:27:10.705Z,21.9
2018-09-11T12:28:16.364Z,21.9
2018-09-11T12:29:22.026Z,21.9
2018-09-11T12:30:27.417Z,21.9
2018-09-11T12:31:33.301Z,21.9
2018-09-11T12:32:38.449Z,21.9
2018-09-11T12:33:44.017Z,21.9
2018-09-11T12:34:48.898Z,21.9
2018-09-11T12:35:54.340Z,21.9
2018-09-11T12:36:59.515Z,21.9
2018-09-11T12:38:04.685Z,21.9
2018-09-11T12:39:09.270Z,21.9
2018-09-11T12:40:14.531Z,21.9
2018-09-11T12:41:19.641Z,21.9
2018-09-11T12:42:24.524Z,21.9
2018-09-11T12:43:44.997Z,21.9
2018-09-11T12:44:50.493Z,21.9
2018-09-11T12:45:56.148Z,21.9
2018-09-11T12:47:03.323Z,21.9
2018-09-11T12:48:09.676Z,21.9
2018-09-11T12:49:18.866Z,21.9
2018-09-11T12:50:24.027Z,21.9
2018-09-11T12:51:29.869Z,21.9
2018-09-11T12:52:35.436Z,21.9
2018-09-11T12:53:41.642Z,21.9
2018-09-11T12:54:46.782Z,21.9
2018-09-11T12:55:51.967Z,21.9
2018-09-11T12:56:57.195Z,21.9
2018-09-11T12:58:03.057Z,21.9
2018-09-11T12:59:07.727Z,21.9
2018-09-11T13:00:12.601Z,21.9
2018-09-11T13:01:18.065Z,21.9
2018-09-11T13:02:23.537Z,21.9
2018-09-11T13:03:29.731Z,21.9
2018-09-11T13:04:35.132Z,21.9
2018-09-11T13:05:40.304Z,21.9
2018-09-11T13:06:45.751Z,21.9
2018-09-11T13:07:50.342Z,21.9
2018-09-11T13:08:55.791Z,21.9
2018-09-11T13:10:01.226Z,21.9
2018-09-11T13:11:05.586Z,21.9
2018-09-11T13:12:11.018Z,21.9
2018-09-11T13:13:16.437Z,21.9
2018-09-11T13:14:21.692Z,21.9
2018-09-11T13:15:27.262Z,21.9
2018-09-11T13:16:32.432Z,21.9
2018-09-11T13:17:37.080Z,21.9
2018-09-11T13:18:42.757Z,21.9
2018-09-11T13:19:48.202Z,21.9
2018-09-11T13:20:53.707Z,21.9
2018-09-11T13:21:59.278Z,21.9
2018-09-11T13:23:04.269Z,21.9
2018-09-11T13:24:09.418Z,21.9
2018-09-11T13:25:15.022Z,21.9
2018-09-11T13:26:20.254Z,21.9
2018-09-11T13:27:26.289Z,21.9
2018-09-11T13:28:31.721Z,21.9
2018-09-11T13:29:36.873Z,21.9
2018-09-11T13:30:42.426Z,21.9
2018-09-11T13:31:47.578Z,21.9
2018-09-11T13:32:52.438Z,21.9
2018-09-11T13:33:57.920Z,21.9
2018-09-11T13:35:02.600Z,21.9
2018-09-11T13:36:07.028Z,21.9
2018-09-11T13:37:12.914Z,21.9
2018-09-11T13:38:18.053Z,21.9
2018-09-11T13:39:22.972Z,21.9
2018-09-11T13:40:28.631Z,21.9
2018-09-11T13:41:33.794Z,21.9
2018-09-11T13:42:38.917Z,21.9
2018-09-11T13:43:43.285Z,21.9
2018-09-11T13:44:48.158Z,21.9
2018-09-11T13:45:53.651Z,21.9
2018-09-11T13:46:58.593Z,21.9
2018-09-11T13:48:04.338Z,21.9
2018-09-11T13:49:10.055Z,21.9
2018-09-11T13:50:15.264Z,21.9
2018-09-11T13:51:20.694Z,21.9
2018-09-11T13:52:26.195Z,21.9
2018-09-11T13:53:31.365Z,21.9
2018-09-11T13:54:36.855Z,21.9
2018-09-11T13:55:42.125Z,21.9
2018-09-11T13:56:47.368Z,21.9
2018-09-11T13:57:53.127Z,21.9
2018-09-11T13:58:58.299Z,21.9
2018-09-11T14:00:03.781Z,21.9
2018-09-11T14:01:09.047Z,21.9
2018-09-11T14:02:13.944Z,21.9
2018-09-11T14:03:18.874Z,21.9
2018-09-11T14:04:24.371Z,21.9
2018-09-11T14:05:28.967Z,21.9
2018-09-11T14:06:34.665Z,21.9
2018-09-11T14:07:40.082Z,21.9
2018-09-11T14:08:45.238Z,21.9
2018-09-11T14:09:50.393Z,21.9
2018-09-11T14:10:54.992Z,21.9
2018-09-11T14:11:59.580Z,21.9
2018-09-11T14:13:04.843Z,21.9
2018-09-11T14:14:10.440Z,21.9
2018-09-11T14:15:15.600Z,21.9
2018-09-11T14:16:20.865Z,21.9
2018-09-11T14:17:26.081Z,21.9
2018-09-11T14:18:31.191Z,21.9
2018-09-11T14:19:36.615Z,21.9
2018-09-11T14:20:41.783Z,21.9
2018-09-11T14:21:47.206Z,21.9
2018-09-11T14:22:52.632Z,21.9
2018-09-11T14:23:58.178Z,21.9
2018-09-11T14:25:03.324Z,21.9
2018-09-11T14:26:08.050Z,21.9
2018-09-11T14:27:13.547Z,21.9
2018-09-11T14:28:18.798Z,21.9
2018-09-11T14:29:23.723Z,21.9
2018-09-11T14:30:29.167Z,21.9
2018-09-11T14:31:34.366Z,21.9
2018-09-11T14:32:39.837Z,21.9
2018-09-11T14:33:45.312Z,21.9
2018-09-11T14:34:50.746Z,21.9
2018-09-11T14:35:56.253Z,21.9
2018-09-11T14:37:01.361Z,21.9
2018-09-11T14:38:06.569Z,21.9